createdAt,value
2019-01-04T00:00:41.035Z,45.73
2019-01-04T00:03:10.843Z,43.63
2019-01-04T00:05:40.584Z,52.80
2019-01-04T00:08:10.425Z,63.67
2019-01-04T00:10:40.288Z,61.47
2019-01-04T00:13:10.118Z,58.03
2019-01-04T00:15:39.935Z,60.90
2019-01-04T00:18:09.677Z,53.53
2019-01-04T00:20:39.491Z,66.17
2019-01-04T00:23:09.292Z,59.83
2019-01-04T00:25:39.036Z,58.47
2019-01-04T00:28:09.263Z,53.43
2019-01-04T00:30:39.072Z,56.47
2019-01-04T00:33:08.801Z,53.00
2019-01-04T00:35:38.604Z,54.80
2019-01-04T00:38:08.408Z,50.90
2019-01-04T00:40:38.157Z,49.77
2019-01-04T00:43:07.997Z,41.93
2019-01-04T00:45:37.801Z,33.43
2019-01-04T00:48:07.604Z,34.40
2019-01-04T00:50:37.340Z,32.93
2019-01-04T00:53:07.149Z,29.97
2019-01-04T00:55:51.912Z,49.83
2019-01-04T00:58:33.464Z,49.23
2019-01-04T01:01:12.836Z,51.60
2019-01-04T01:03:54.305Z,54.90
2019-01-04T01:06:27.257Z,50.47
2019-01-04T01:09:22.574Z,52.23
2019-01-04T01:12:04.485Z,56.90
2019-01-04T01:15:10.007Z,48.53
2019-01-04T01:17:48.688Z,54.20
2019-01-04T01:20:41.233Z,64.03
2019-01-04T01:23:32.290Z,45.10
2019-01-04T01:26:32.121Z,61.77
2019-01-04T01:29:30.654Z,52.80
2019-01-04T01:32:36.876Z,52.43
2019-01-04T01:35:12.609Z,53.13
2019-01-04T01:38:20.429Z,58.40
2019-01-04T01:41:15.933Z,49.93
2019-01-04T01:43:54.639Z,48.50
2019-01-04T01:46:30.541Z,52.93
2019-01-04T01:49:28.969Z,50.50
2019-01-04T01:52:19.989Z,53.40
2019-01-04T01:54:49.795Z,56.43
2019-01-04T01:57:19.599Z,49.20
2019-01-04T01:59:49.339Z,49.00
2019-01-04T02:02:19.156Z,48.80
2019-01-04T02:04:48.955Z,41.67
2019-01-04T02:07:18.686Z,46.30
2019-01-04T02:09:48.487Z,44.67
2019-01-04T02:12:18.273Z,45.03
2019-01-04T02:14:48.075Z,38.27
2019-01-04T02:17:17.877Z,45.07
2019-01-04T02:19:47.637Z,36.70
2019-01-04T02:22:17.457Z,40.27
2019-01-04T02:24:47.189Z,37.23
2019-01-04T02:27:16.974Z,42.07
2019-01-04T02:29:46.707Z,44.33
2019-01-04T02:32:16.591Z,33.43
2019-01-04T02:34:46.325Z,37.77
2019-01-04T02:37:16.122Z,44.97
2019-01-04T02:39:45.931Z,38.07
2019-01-04T02:42:15.686Z,39.07
2019-01-04T02:44:45.490Z,42.23
2019-01-04T02:47:15.226Z,42.87
2019-01-04T02:49:45.033Z,37.30
2019-01-04T02:52:14.785Z,62.10
2019-01-04T02:54:44.591Z,47.43
2019-01-04T02:57:14.396Z,45.03
2019-01-04T02:59:44.193Z,39.07
2019-01-04T03:02:14.028Z,40.73
2019-01-04T03:04:43.832Z,36.63
2019-01-04T03:07:13.651Z,42.53
2019-01-04T03:09:43.378Z,55.30
2019-01-04T03:12:13.172Z,57.47
2019-01-04T03:14:42.905Z,45.40
2019-01-04T03:17:12.716Z,34.23
2019-01-04T03:19:42.442Z,41.30
2019-01-04T03:22:12.178Z,39.67
2019-01-04T03:24:41.997Z,33.07
2019-01-04T03:27:11.730Z,35.87
2019-01-04T03:29:42.177Z,34.13
2019-01-04T03:32:11.923Z,36.77
2019-01-04T03:34:41.812Z,38.83
2019-01-04T03:37:11.537Z,32.50
2019-01-04T03:39:41.326Z,36.43
2019-01-04T03:42:11.090Z,32.93
2019-01-04T03:44:40.996Z,35.53
2019-01-04T03:47:10.726Z,31.57
2019-01-04T03:49:40.536Z,29.23
2019-01-04T03:52:10.286Z,31.33
2019-01-04T03:54:40.092Z,27.30
2019-01-04T03:57:09.820Z,27.97
2019-01-04T03:59:39.625Z,31.20
2019-01-04T04:02:09.354Z,26.50
2019-01-04T04:04:39.177Z,29.67
2019-01-04T04:07:09.001Z,33.97
2019-01-04T04:09:38.801Z,29.53
2019-01-04T04:12:09.802Z,34.67
2019-01-04T04:14:40.834Z,29.07
2019-01-04T04:17:10.640Z,33.23
2019-01-04T04:19:40.364Z,33.60
2019-01-04T04:22:10.183Z,31.83
2019-01-04T04:24:39.909Z,31.73
2019-01-04T04:27:09.733Z,34.90
2019-01-04T04:29:39.565Z,31.10
2019-01-04T04:32:09.360Z,30.23
2019-01-04T04:34:39.197Z,30.60
2019-01-04T04:37:09.011Z,41.07
2019-01-04T04:39:38.749Z,31.40
2019-01-04T04:42:08.562Z,30.43
2019-01-04T04:44:38.293Z,35.47
2019-01-04T04:47:08.102Z,33.23
2019-01-04T04:49:37.904Z,37.90
2019-01-04T04:52:07.648Z,30.73
2019-01-04T04:54:37.448Z,30.27
2019-01-04T04:57:08.186Z,37.33
2019-01-04T04:59:37.987Z,36.33
2019-01-04T05:02:07.738Z,43.23
2019-01-04T05:04:37.539Z,60.43
2019-01-04T05:07:07.302Z,63.60
2019-01-04T05:09:37.101Z,36.37
2019-01-04T05:12:07.830Z,66.60
2019-01-04T05:14:37.651Z,31.37
2019-01-04T05:17:07.465Z,34.63
2019-01-04T05:19:37.256Z,35.77
2019-01-04T05:22:07.000Z,28.00
2019-01-04T05:24:36.814Z,28.40
2019-01-04T05:27:06.543Z,29.00
2019-01-04T05:29:36.278Z,31.63
2019-01-04T05:32:06.117Z,29.50
2019-01-04T05:34:35.917Z,33.53
2019-01-04T05:37:05.725Z,36.03
2019-01-04T05:39:35.453Z,33.47
2019-01-04T05:42:05.283Z,31.10
2019-01-04T05:44:35.016Z,31.23
2019-01-04T05:47:04.813Z,32.33
2019-01-04T05:49:34.546Z,37.77
2019-01-04T05:52:04.350Z,34.73
2019-01-04T05:54:34.086Z,29.93
2019-01-04T05:57:03.890Z,38.77
2019-01-04T05:59:33.626Z,39.40
2019-01-04T06:02:03.438Z,34.67
2019-01-04T06:04:33.188Z,36.47
2019-01-04T06:07:03.001Z,31.80
2019-01-04T06:09:32.806Z,34.57
2019-01-04T06:12:02.614Z,30.70
2019-01-04T06:14:32.417Z,32.87
2019-01-04T06:17:02.161Z,37.33
2019-01-04T06:19:33.558Z,41.93
2019-01-04T06:22:03.290Z,32.50
2019-01-04T06:24:33.086Z,34.57
2019-01-04T06:27:02.820Z,31.37
2019-01-04T06:29:32.612Z,33.90
2019-01-04T06:32:02.421Z,32.37
2019-01-04T06:34:32.173Z,36.43
2019-01-04T06:37:01.968Z,32.47
2019-01-04T06:39:34.501Z,29.33
2019-01-04T06:42:04.343Z,31.70
2019-01-04T06:44:34.100Z,32.23
2019-01-04T06:47:14.066Z,24.17
2019-01-04T06:49:43.898Z,26.87
2019-01-04T06:52:13.840Z,27.13
2019-01-04T06:55:34.899Z,27.33
2019-01-04T06:58:24.646Z,29.53
2019-01-04T07:00:54.412Z,25.13
2019-01-04T07:03:25.823Z,33.37
2019-01-04T07:05:55.647Z,32.50
2019-01-04T07:08:25.477Z,29.37
2019-01-04T07:10:56.530Z,38.23
2019-01-04T07:13:26.341Z,30.30
2019-01-04T07:15:56.110Z,28.50
2019-01-04T07:18:27.139Z,27.23
2019-01-04T07:20:56.939Z,34.30
2019-01-04T07:23:26.768Z,39.10
2019-01-04T07:25:56.507Z,31.47
2019-01-04T07:28:26.325Z,25.53
2019-01-04T07:30:56.138Z,32.10
2019-01-04T07:33:25.899Z,29.00
2019-01-04T07:35:55.646Z,27.83
2019-01-04T07:38:25.497Z,33.47
2019-01-04T07:40:55.322Z,33.53
2019-01-04T07:43:25.049Z,30.07
2019-01-04T07:45:54.855Z,33.83
2019-01-04T07:48:24.615Z,46.30
2019-01-04T07:50:54.418Z,69.83
2019-01-04T07:53:24.158Z,54.60
2019-01-04T07:55:53.962Z,50.33
2019-01-04T07:58:23.705Z,40.37
2019-01-04T08:00:53.532Z,40.37
2019-01-04T08:03:23.261Z,30.20
2019-01-04T08:05:57.779Z,30.37
2019-01-04T08:08:27.570Z,33.53
2019-01-04T08:10:57.379Z,26.43
2019-01-04T08:13:27.152Z,30.47
2019-01-04T08:15:56.959Z,32.90
2019-01-04T08:18:27.663Z,29.77
2019-01-04T08:20:57.394Z,31.00
2019-01-04T08:23:27.200Z,29.83
2019-01-04T08:25:56.934Z,32.17
2019-01-04T08:28:26.753Z,27.60
2019-01-04T08:30:56.482Z,26.20
2019-01-04T08:33:26.285Z,26.73
2019-01-04T08:35:56.097Z,25.90
2019-01-04T08:38:25.852Z,24.03
2019-01-04T08:40:55.581Z,21.87
2019-01-04T08:43:25.413Z,22.83
2019-01-04T08:45:55.143Z,21.70
2019-01-04T08:48:24.954Z,27.20
2019-01-04T08:50:54.709Z,22.17
2019-01-04T08:53:55.876Z,20.90
2019-01-04T08:56:28.883Z,17.70
2019-01-04T08:58:58.606Z,19.27
2019-01-04T09:01:28.409Z,18.20
2019-01-04T09:03:58.146Z,19.90
2019-01-04T09:06:27.956Z,20.57
2019-01-04T09:08:57.721Z,19.37
2019-01-04T09:11:27.505Z,17.97
2019-01-04T09:13:57.231Z,15.03
2019-01-04T09:16:27.041Z,14.87
2019-01-04T09:18:56.761Z,13.93
2019-01-04T09:21:26.561Z,17.77
2019-01-04T09:23:56.271Z,17.63
2019-01-04T09:26:26.060Z,17.70
2019-01-04T09:28:55.848Z,14.50
2019-01-04T09:31:25.568Z,17.67
2019-01-04T09:33:55.356Z,21.10
2019-01-04T09:36:25.077Z,33.87
2019-01-04T09:38:54.869Z,35.87
2019-01-04T09:41:33.365Z,31.63
2019-01-04T09:44:04.190Z,32.53
2019-01-04T09:46:34.016Z,29.63
2019-01-04T09:49:03.798Z,27.37
2019-01-04T09:51:34.715Z,28.23
2019-01-04T09:54:04.518Z,30.77
2019-01-04T09:56:34.239Z,33.57
2019-01-04T09:59:04.028Z,29.23
2019-01-04T10:01:33.748Z,29.20
2019-01-04T10:04:03.545Z,35.00
2019-01-04T10:06:33.443Z,31.33
2019-01-04T10:09:04.668Z,34.37
2019-01-04T10:11:34.506Z,34.67
2019-01-04T10:14:04.223Z,44.47
2019-01-04T10:16:34.019Z,44.50
2019-01-04T10:19:03.738Z,36.17
2019-01-04T10:21:34.920Z,47.50
2019-01-04T10:24:04.636Z,37.43
2019-01-04T10:26:34.429Z,41.60
2019-01-04T10:29:04.151Z,37.43
2019-01-04T10:31:33.948Z,42.20
2019-01-04T10:34:03.677Z,37.97
2019-01-04T10:36:33.468Z,41.63
2019-01-04T10:39:04.287Z,42.33
2019-01-04T10:41:34.027Z,38.13
2019-01-04T10:44:03.866Z,39.10
2019-01-04T10:46:33.599Z,40.77
2019-01-04T10:49:03.421Z,44.87
2019-01-04T10:51:33.139Z,37.57
2019-01-04T10:54:02.925Z,39.87
2019-01-04T10:56:32.639Z,37.53
2019-01-04T10:59:02.433Z,36.20
2019-01-04T11:01:32.220Z,36.57
2019-01-04T11:04:01.943Z,34.63
2019-01-04T11:06:31.739Z,36.03
2019-01-04T11:09:01.481Z,33.93
2019-01-04T11:11:32.875Z,30.57
2019-01-04T11:14:02.611Z,30.47
2019-01-04T11:16:32.420Z,27.80
2019-01-04T11:19:02.212Z,26.77
2019-01-04T11:21:31.927Z,27.60
2019-01-04T11:24:13.668Z,36.00
2019-01-04T11:26:46.819Z,30.30
2019-01-04T11:29:31.363Z,31.60
2019-01-04T11:32:20.605Z,29.30
2019-01-04T11:35:23.995Z,34.60
2019-01-04T11:38:31.287Z,38.70
2019-01-04T11:41:09.796Z,27.20
2019-01-04T11:44:05.351Z,32.77
2019-01-04T11:55:59.221Z,34.17
2019-01-04T12:17:14.598Z,35.47
2019-01-04T12:28:30.676Z,39.77
2019-01-04T12:31:00.567Z,39.37
2019-01-04T12:33:30.364Z,39.57
2019-01-04T12:36:00.149Z,33.47
2019-01-04T12:38:29.881Z,35.83
2019-01-04T12:44:37.728Z,34.37
2019-01-04T12:47:07.595Z,38.00
2019-01-04T12:49:37.800Z,38.27
2019-01-04T12:52:07.682Z,32.10
2019-01-04T12:55:20.908Z,31.97
2019-01-04T13:51:38.197Z,36.30
2019-01-04T14:01:08.973Z,36.73
2019-01-04T14:09:35.748Z,41.90
2019-01-04T14:26:35.312Z,38.40
2019-01-04T14:56:17.892Z,43.20
2019-01-04T14:59:03.241Z,41.27
2019-01-04T15:11:36.790Z,53.80
2019-01-04T15:14:16.029Z,46.97
2019-01-04T15:16:46.557Z,43.57
2019-01-04T15:22:20.510Z,44.00
2019-01-04T15:25:29.509Z,49.10
2019-01-04T15:46:17.588Z,45.17
2019-01-04T15:49:10.196Z,51.10
2019-01-04T16:30:53.279Z,44.93
2019-01-04T16:53:28.837Z,27.73
2019-01-04T17:02:29.125Z,28.80
2019-01-04T17:06:48.404Z,30.23
2019-01-04T17:07:55.532Z,36.43
2019-01-04T17:49:37.542Z,39.17
2019-01-04T18:22:08.773Z,20.23
2019-01-04T18:32:14.971Z,20.07
2019-01-04T18:35:06.912Z,16.67
2019-01-04T19:03:22.392Z,18.47
2019-01-04T19:06:04.500Z,15.03
2019-01-04T19:08:52.595Z,15.40
2019-01-04T20:25:01.963Z,15.70
2019-01-04T20:38:29.057Z,14.73
2019-01-04T20:41:18.793Z,12.97
2019-01-04T20:44:02.113Z,14.43
2019-01-04T20:46:46.921Z,13.70
2019-01-04T20:52:17.973Z,13.93
2019-01-04T20:55:03.023Z,13.30
2019-01-04T21:01:14.396Z,14.47
2019-01-04T21:03:47.975Z,11.83
2019-01-04T21:06:38.106Z,13.07
2019-01-04T21:09:25.038Z,14.70
2019-01-04T21:25:39.725Z,13.23
2019-01-04T21:28:41.674Z,12.87
2019-01-04T21:31:31.138Z,12.03
2019-01-04T21:37:50.266Z,12.47
2019-01-04T21:40:58.058Z,12.40
2019-01-04T21:43:33.264Z,12.70
2019-01-04T21:46:17.573Z,14.47
